Time;durP1;ratioP1;P1;durP2;ratioP2;P2;SDS_P1;SDS_P2;PMS_P1;PMS_P2;Temp;Humidity;BMP_temperature;BMP_pressure;BME280_temperature;BME280_humidity;BME280_pressure;Samples;Min_cycle;Max_cycle;Signal;HPM_P1;HPM_P2
2023/01/07 00:02:24;;;;;;;;;;;;;;;0.26;78.60;96031.97;5072971;28;1918;-49
2023/01/07 00:04:50;;;;;;;;;;;;;;;0.25;79.07;96030.28;5073041;28;1048;-49
2023/01/07 00:07:16;;;;;;;;;;;;;;;0.24;79.05;96038.25;5073182;28;1060;-48
2023/01/07 00:09:42;;;;;;;;;;;;;;;0.30;79.03;96032.69;5073119;28;972;-49
2023/01/07 00:12:08;;;;;;;;;;;;;;;0.11;79.03;96033.59;5072792;28;1254;-49
2023/01/07 00:14:34;;;;;;;;;;;;;;;0.10;79.64;96041.56;5073042;28;1077;-49
2023/01/07 00:17:00;;;;;;;;;;;;;;;-0.06;79.25;96034.44;5073089;28;1064;-48
2023/01/07 00:19:26;;;;;;;;;;;;;;;-0.20;80.02;96034.25;5088691;28;1053;-49
2023/01/07 00:21:52;;;;;;;;;;;;;;;-0.03;80.75;96038.69;5072589;28;1906;-48
2023/01/07 00:24:18;;;;;;;;;;;;;;;0.05;80.41;96035.69;5072602;28;1461;-49
2023/01/07 00:26:44;;;;;;;;;;;;;;;0.18;80.25;96042.88;5072809;28;974;-49
2023/01/07 00:29:10;;;;;;;;;;;;;;;0.19;79.88;96043.75;5072936;28;1857;-48
2023/01/07 00:31:37;;;;;;;;;;;;;;;0.32;79.51;96038.72;5071452;28;1082;-49
2023/01/07 00:36:31;;;;;;;;;;;;;;;0.08;78.77;96044.28;5072763;28;1025;-48
2023/01/07 00:38:58;;;;;;;;;;;;;;;0.10;79.28;96039.78;5072821;28;1084;-48
2023/01/07 00:41:24;;;;;;;;;;;;;;;-0.01;79.31;96048.19;5072527;28;1914;-49
2023/01/07 00:43:50;;;;;;;;;;;;;;;-0.02;79.39;96045.63;5074605;28;1008;-49
2023/01/07 00:46:16;;;;;;;;;;;;;;;0.05;79.21;96048.84;5076677;28;1035;-48
2023/01/07 00:48:43;;;;;;;;;;;;;;;0.10;79.56;96052.94;5076378;28;1080;-48
2023/01/07 00:51:10;;;;;;;;;;;;;;;-0.27;78.82;96059.13;5076471;28;983;-48
2023/01/07 00:53:36;;;;;;;;;;;;;;;-0.62;81.18;96044.09;5075934;28;1037;-48
2023/01/07 00:56:02;;;;;;;;;;;;;;;-0.54;81.41;96045.50;5076549;28;968;-48
2023/01/07 00:58:30;;;;;;;;;;;;;;;-0.38;81.21;96035.97;5076213;28;1050;-48
2023/01/07 01:00:57;;;;;;;;;;;;;;;-0.18;80.69;96042.91;5076077;28;1999;-48
2023/01/07 01:03:23;;;;;;;;;;;;;;;-0.26;79.28;96048.53;5076102;28;1267;-49
2023/01/07 01:05:49;;;;;;;;;;;;;;;-0.47;79.11;96042.53;5038418;28;1661;-48
2023/01/07 01:08:17;;;;;;;;;;;;;;;-0.43;79.83;96051.13;5036146;28;1084;-48
2023/01/07 01:10:44;;;;;;;;;;;;;;;-0.34;80.57;96048.06;5036053;28;1099;-48
2023/01/07 01:13:14;;;;;;;;;;;;;;;-0.21;80.17;96048.31;5050583;28;1146;-48
2023/01/07 01:15:42;;;;;;;;;;;;;;;-0.21;79.43;96048.31;5079015;28;1109;-48
2023/01/07 01:18:08;;;;;;;;;;;;;;;-0.36;79.87;96054.28;5096220;28;1107;-48
2023/01/07 01:20:34;;;;;;;;;;;;;;;-0.43;81.10;96065.09;5096081;28;1080;-48
2023/01/07 01:23:00;;;;;;;;;;;;;;;-0.33;81.59;96057.63;5082620;28;1918;-48
2023/01/07 01:25:26;;;;;;;;;;;;;;;-0.18;80.56;96066.56;5075993;28;1468;-48
2023/01/07 01:27:52;;;;;;;;;;;;;;;-0.11;80.39;96062.72;5075868;28;1033;-48
2023/01/07 01:30:18;;;;;;;;;;;;;;;-0.27;79.53;96067.84;5075850;28;979;-48
2023/01/07 01:32:44;;;;;;;;;;;;;;;-0.40;80.02;96054.47;5075413;28;1358;-49
2023/01/07 01:35:10;;;;;;;;;;;;;;;-0.63;80.34;96052.88;5075711;28;1033;-48
2023/01/07 01:37:37;;;;;;;;;;;;;;;-0.85;81.28;96053.03;5075462;28;1562;-48
2023/01/07 01:40:04;;;;;;;;;;;;;;;-0.94;82.43;96056.06;5075786;28;978;-48
2023/01/07 01:42:30;;;;;;;;;;;;;;;-0.62;82.10;96054.59;5075318;28;1910;-48
2023/01/07 01:44:57;;;;;;;;;;;;;;;-0.29;81.40;96047.81;5075514;28;1023;-48
2023/01/07 01:47:29;;;;;;;;;;;;;;;-0.14;80.19;96047.09;5075401;28;1194;-48
2023/01/07 01:50:00;;;;;;;;;;;;;;;-0.06;80.59;96049.34;5075295;28;1045;-48
2023/01/07 01:52:33;;;;;;;;;;;;;;;-0.11;79.69;96052.22;5075007;28;966;-48
2023/01/07 01:55:00;;;;;;;;;;;;;;;-0.47;79.53;96053.03;5075222;28;1004;-48
2023/01/07 01:57:27;;;;;;;;;;;;;;;-0.71;81.79;96055.00;5075392;28;1027;-48
2023/01/07 01:59:54;;;;;;;;;;;;;;;-0.60;81.69;96055.38;5075038;28;1099;-49
2023/01/07 02:02:24;;;;;;;;;;;;;;;-0.45;81.42;96052.97;5074750;28;1990;-48
2023/01/07 02:04:51;;;;;;;;;;;;;;;-0.44;81.40;96057.28;5074954;28;1056;-48
2023/01/07 02:07:17;;;;;;;;;;;;;;;-0.57;80.45;96040.38;5074951;28;1013;-48
2023/01/07 02:09:44;;;;;;;;;;;;;;;-0.67;80.82;96046.06;5075049;28;1017;-48
2023/01/07 02:12:29;;;;;;;;;;;;;;;-0.91;80.75;96053.31;5074743;28;1173;-48
2023/01/07 02:15:16;;;;;;;;;;;;;;;-0.89;81.59;96042.72;5074683;28;1101;-48
2023/01/07 02:17:42;;;;;;;;;;;;;;;-0.69;81.50;96031.31;5074895;28;966;-48
2023/01/07 02:20:08;;;;;;;;;;;;;;;-0.66;80.71;96039.06;5074632;28;1020;-48
2023/01/07 02:22:53;;;;;;;;;;;;;;;-0.75;82.45;96037.69;5074270;28;1906;-47
2023/01/07 02:25:45;;;;;;;;;;;;;;;-0.51;81.88;96040.09;5074237;28;1459;-48
2023/01/07 02:28:30;;;;;;;;;;;;;;;-0.82;78.69;96046.78;5074574;28;1099;-48
2023/01/07 02:31:22;;;;;;;;;;;;;;;-0.89;81.61;96050.59;5074512;28;1041;-48
2023/01/07 02:33:54;;;;;;;;;;;;;;;-0.98;83.68;96051.88;5074188;28;1028;-48
2023/01/07 02:36:40;;;;;;;;;;;;;;;-0.82;83.89;96047.63;5074488;28;1049;-48
2023/01/07 02:39:22;;;;;;;;;;;;;;;-0.71;81.83;96052.38;5074400;28;1036;-48
2023/01/07 02:42:00;;;;;;;;;;;;;;;-1.06;79.61;96049.59;5074021;28;1914;-48
2023/01/07 02:44:42;;;;;;;;;;;;;;;-1.26;81.34;96045.22;5074257;28;1056;-48
2023/01/07 02:47:08;;;;;;;;;;;;;;;-1.08;81.59;96046.19;5074469;28;967;-48
2023/01/07 02:49:34;;;;;;;;;;;;;;;-1.06;81.12;96049.59;5074107;28;1080;-48
2023/01/07 02:52:18;;;;;;;;;;;;;;;-1.14;80.66;96046.44;5073821;28;1040;-48
2023/01/07 02:54:47;;;;;;;;;;;;;;;-1.12;80.62;96036.75;5074005;28;999;-48
2023/01/07 02:57:25;;;;;;;;;;;;;;;-1.02;80.88;96045.06;5073914;28;1035;-48
2023/01/07 02:59:54;;;;;;;;;;;;;;;-0.94;80.63;96042.09;5074102;28;1084;-48
2023/01/07 03:02:26;;;;;;;;;;;;;;;-1.05;80.07;96038.16;5073728;28;1905;-48
2023/01/07 03:05:05;;;;;;;;;;;;;;;-1.13;80.86;96036.81;5073772;28;1067;-48
2023/01/07 03:07:37;;;;;;;;;;;;;;;-1.07;80.70;96034.75;5073188;28;1048;-48
2023/01/07 03:10:12;;;;;;;;;;;;;;;-1.26;80.66;96031.25;5074046;28;1048;-48
2023/01/07 03:12:38;;;;;;;;;;;;;;;-1.36;81.87;96036.06;5073446;28;1035;-48
2023/01/07 03:19:10;;;;;;;;;;;;;;;-1.45;81.00;96041.69;5042191;28;1220;-48
2023/01/07 03:21:36;;;;;;;;;;;;;;;-1.37;81.25;96026.47;5053129;28;1993;-48
2023/01/07 03:24:04;;;;;;;;;;;;;;;-1.47;80.96;96031.28;5053490;28;1527;-48
2023/01/07 03:26:32;;;;;;;;;;;;;;;-1.62;82.93;96024.91;5053514;28;1096;-48
2023/01/07 03:29:00;;;;;;;;;;;;;;;-1.63;83.55;96025.84;5053464;28;1013;-48
2023/01/07 03:31:28;;;;;;;;;;;;;;;-1.42;83.49;96033.72;5052832;28;1046;-48
2023/01/07 03:34:20;;;;;;;;;;;;;;;-1.26;82.42;96026.84;5052750;28;1012;-48
2023/01/07 03:36:51;;;;;;;;;;;;;;;-1.16;81.42;96027.28;5051157;28;2011;-48
2023/01/07 03:39:20;;;;;;;;;;;;;;;-1.18;81.36;96029.13;5052894;28;1072;-48
2023/01/07 03:44:35;;;;;;;;;;;;;;;-1.14;80.22;96035.94;5053362;28;1031;-48
2023/01/07 03:47:02;;;;;;;;;;;;;;;-1.09;80.28;96036.59;5053396;28;968;-48
2023/01/07 03:49:28;;;;;;;;;;;;;;;-1.38;79.42;96040.53;5053252;28;996;-48
2023/01/07 03:51:54;;;;;;;;;;;;;;;-1.77;82.05;96042.13;5053374;28;969;-48
2023/01/07 03:54:22;;;;;;;;;;;;;;;-1.66;82.35;96040.84;5053372;28;966;-48
2023/01/07 03:56:48;;;;;;;;;;;;;;;-1.47;82.17;96033.03;5053266;28;1062;-48
2023/01/07 03:59:14;;;;;;;;;;;;;;;-1.35;81.07;96036.91;5053303;28;1172;-48
2023/01/07 04:01:40;;;;;;;;;;;;;;;-1.37;80.49;96036.97;5052980;28;1942;-49
2023/01/07 04:04:06;;;;;;;;;;;;;;;-1.45;80.80;96042.53;5053120;28;1037;-48
2023/01/07 04:06:34;;;;;;;;;;;;;;;-1.35;80.85;96053.50;5053267;28;1049;-48
2023/01/07 04:09:00;;;;;;;;;;;;;;;-1.40;80.14;96045.00;5053239;28;1394;-48
2023/01/07 04:11:26;;;;;;;;;;;;;;;-1.36;80.54;96053.59;5053195;28;970;-48
2023/01/07 04:13:52;;;;;;;;;;;;;;;-1.57;80.90;96045.72;5052979;28;1103;-48
2023/01/07 04:16:18;;;;;;;;;;;;;;;-1.68;81.37;96048.78;5053110;28;996;-48
2023/01/07 04:18:44;;;;;;;;;;;;;;;-1.66;81.72;96051.34;5069770;28;1248;-48
2023/01/07 04:21:11;;;;;;;;;;;;;;;-1.61;81.20;96047.59;5059470;28;1999;-48
2023/01/07 04:23:37;;;;;;;;;;;;;;;-1.51;81.57;96045.44;5076576;28;1478;-48
2023/01/07 04:26:03;;;;;;;;;;;;;;;-1.49;82.88;96056.72;5076952;28;1075;-48
2023/01/07 04:28:29;;;;;;;;;;;;;;;-1.44;81.62;96049.50;5076977;28;1204;-48
2023/01/07 04:30:57;;;;;;;;;;;;;;;-1.51;82.52;96050.69;5076849;28;1007;-48
2023/01/07 04:33:23;;;;;;;;;;;;;;;-1.58;83.32;96055.31;5076688;28;1036;-48
2023/01/07 04:35:49;;;;;;;;;;;;;;;-1.43;81.75;96059.06;5076866;28;1030;-48
2023/01/07 04:38:15;;;;;;;;;;;;;;;-1.37;80.80;96050.09;5076740;28;1056;-48
2023/01/07 04:40:41;;;;;;;;;;;;;;;-1.39;80.64;96058.00;5076579;28;1033;-48
2023/01/07 04:43:08;;;;;;;;;;;;;;;-1.43;80.39;96060.84;5076660;28;1906;-48
2023/01/07 04:45:34;;;;;;;;;;;;;;;-1.65;79.15;96074.00;5076448;28;1113;-48
2023/01/07 04:48:00;;;;;;;;;;;;;;;-1.78;79.92;96064.06;5076515;28;1320;-48
2023/01/07 04:50:27;;;;;;;;;;;;;;;-1.72;80.17;96060.31;5076595;28;1022;-48
2023/01/07 04:52:53;;;;;;;;;;;;;;;-1.74;80.45;96072.66;5076465;28;989;-48
2023/01/07 04:55:19;;;;;;;;;;;;;;;-1.85;80.81;96067.84;5076464;28;1020;-48
2023/01/07 04:57:45;;;;;;;;;;;;;;;-1.85;80.61;96065.22;5076374;28;1024;-48
2023/01/07 05:00:11;;;;;;;;;;;;;;;-2.06;82.20;96063.47;5076287;28;1080;-48
2023/01/07 05:02:37;;;;;;;;;;;;;;;-1.93;82.29;96064.69;5076106;28;1909;-48
2023/01/07 05:05:04;;;;;;;;;;;;;;;-1.77;81.52;96067.50;5058701;28;1025;-48
2023/01/07 05:07:30;;;;;;;;;;;;;;;-1.59;80.54;96064.13;5076169;28;984;-48
2023/01/07 05:09:56;;;;;;;;;;;;;;;-1.56;80.72;96065.75;5076262;28;1019;-48
2023/01/07 05:12:22;;;;;;;;;;;;;;;-1.55;80.64;96066.63;5058305;28;1044;-48
2023/01/07 05:14:48;;;;;;;;;;;;;;;-1.68;79.31;96063.66;5076076;28;1048;-48
2023/01/07 05:17:14;;;;;;;;;;;;;;;-1.92;80.30;96063.75;5061030;28;1101;-49
2023/01/07 05:19:40;;;;;;;;;;;;;;;-2.10;82.25;96061.91;5096126;28;1032;-48
2023/01/07 05:22:06;;;;;;;;;;;;;;;-2.06;82.45;96064.31;5096236;28;1906;-49
2023/01/07 05:24:32;;;;;;;;;;;;;;;-1.93;82.17;96071.72;5083529;28;1497;-48
2023/01/07 05:26:58;;;;;;;;;;;;;;;-1.82;81.46;96069.47;5075957;28;1019;-47
2023/01/07 05:29:24;;;;;;;;;;;;;;;-1.79;80.69;96074.59;5075172;28;1851;-48
2023/01/07 05:31:50;;;;;;;;;;;;;;;-1.69;80.24;96075.06;5075678;28;1033;-49
2023/01/07 05:34:16;;;;;;;;;;;;;;;-1.68;80.58;96082.88;5075978;28;1081;-47
2023/01/07 05:36:42;;;;;;;;;;;;;;;-1.70;79.92;96073.38;5074454;28;1025;-49
2023/01/07 05:39:08;;;;;;;;;;;;;;;-1.66;80.30;96080.19;5075578;28;1032;-49
2023/01/07 05:41:34;;;;;;;;;;;;;;;-1.88;79.22;96081.06;5075543;28;1910;-49
2023/01/07 05:44:00;;;;;;;;;;;;;;;-1.91;80.24;96081.19;5075575;28;1057;-48
2023/01/07 05:46:26;;;;;;;;;;;;;;;-1.83;80.20;96073.88;5075358;28;972;-48
2023/01/07 05:48:53;;;;;;;;;;;;;;;-1.82;79.85;96075.59;5074257;28;1177;-49
2023/01/07 05:51:19;;;;;;;;;;;;;;;-1.81;79.59;96077.28;5075327;28;1012;-48
2023/01/07 05:53:45;;;;;;;;;;;;;;;-2.05;79.72;96078.28;5075332;28;1076;-49
2023/01/07 05:56:11;;;;;;;;;;;;;;;-2.11;80.59;96081.16;5075268;28;1132;-49
2023/01/07 05:58:37;;;;;;;;;;;;;;;-1.92;81.15;96079.47;5075198;28;1016;-48
2023/01/07 06:01:03;;;;;;;;;;;;;;;-1.83;80.56;96081.72;5075140;28;1026;-48
2023/01/07 06:03:29;;;;;;;;;;;;;;;-1.79;80.18;96077.22;5073935;28;1037;-48
2023/01/07 06:05:55;;;;;;;;;;;;;;;-1.80;80.19;96084.25;5075293;28;970;-48
2023/01/07 06:08:21;;;;;;;;;;;;;;;-1.85;80.00;96085.34;5073762;28;1012;-48
2023/01/07 06:10:47;;;;;;;;;;;;;;;-1.73;80.22;96086.59;5074985;28;1088;-48
2023/01/07 06:13:14;;;;;;;;;;;;;;;-1.63;79.56;96083.53;5074984;28;1048;-49
2023/01/07 06:15:40;;;;;;;;;;;;;;;-1.65;79.50;96087.13;5074857;28;1040;-49
2023/01/07 06:18:06;;;;;;;;;;;;;;;-1.69;78.50;96082.94;5074898;28;1165;-48
2023/01/07 06:20:35;;;;;;;;;;;;;;;-1.93;78.57;96083.03;5074685;28;1099;-48
2023/01/07 06:23:03;;;;;;;;;;;;;;;-2.17;79.36;96079.63;5074691;28;1902;-48
2023/01/07 06:25:29;;;;;;;;;;;;;;;-2.28;81.85;96087.06;5074286;28;1251;-48
2023/01/07 06:27:57;;;;;;;;;;;;;;;-2.21;83.18;96084.13;5074709;28;1231;-48
2023/01/07 06:30:23;;;;;;;;;;;;;;;-1.88;82.62;96082.84;5074467;28;1033;-49
2023/01/07 06:32:49;;;;;;;;;;;;;;;-1.58;80.90;96083.34;5074519;28;1862;-48
2023/01/07 06:35:15;;;;;;;;;;;;;;;-1.38;80.92;96083.34;5074676;28;982;-49
2023/01/07 06:37:41;;;;;;;;;;;;;;;-1.31;79.58;96085.69;5074536;28;993;-48
2023/01/07 06:40:07;;;;;;;;;;;;;;;-0.37;75.13;96084.97;5074277;28;988;-48
2023/01/07 06:42:33;;;;;;;;;;;;;;;2.47;64.94;96092.19;5073581;28;1992;-49
2023/01/07 06:44:59;;;;;;;;;;;;;;;4.77;55.97;96103.47;5074177;28;1099;-48
2023/01/07 06:47:25;;;;;;;;;;;;;;;6.42;50.75;96108.78;5074398;28;1026;-48
2023/01/07 06:49:51;;;;;;;;;;;;;;;7.79;45.89;96118.88;5074390;28;1053;-49
2023/01/07 06:52:18;;;;;;;;;;;;;;;8.85;43.75;96117.56;5074295;28;961;-49
2023/01/07 06:54:44;;;;;;;;;;;;;;;9.55;42.31;96132.97;5074199;28;1335;-48
2023/01/07 06:57:09;;;;;;;;;;;;;;;9.55;42.00;96137.47;5074049;28;1076;-48
2023/01/07 06:59:35;;;;;;;;;;;;;;;9.33;42.00;96136.63;5073860;28;1016;-49
2023/01/07 07:02:02;;;;;;;;;;;;;;;10.09;40.89;96130.16;5074152;28;1987;-48
2023/01/07 07:04:28;;;;;;;;;;;;;;;10.71;39.62;96145.16;5074054;28;1047;-48
2023/01/07 07:06:54;;;;;;;;;;;;;;;11.49;38.25;96141.69;5074053;28;1000;-49
2023/01/07 07:09:20;;;;;;;;;;;;;;;11.85;37.60;96148.09;5073840;28;1008;-49
2023/01/07 07:11:46;;;;;;;;;;;;;;;12.87;36.20;96152.66;5073870;28;1037;-48
2023/01/07 07:14:12;;;;;;;;;;;;;;;13.58;34.49;96164.47;5073728;28;1060;-47
2023/01/07 07:16:41;;;;;;;;;;;;;;;14.31;33.54;96165.16;5073909;28;1036;-47
2023/01/07 07:19:07;;;;;;;;;;;;;;;14.78;32.53;96170.13;5073551;28;1101;-47
2023/01/07 07:21:33;;;;;;;;;;;;;;;14.51;33.08;96171.13;5073695;28;1996;-47
2023/01/07 07:23:59;;;;;;;;;;;;;;;14.22;33.66;96169.63;5073661;28;1177;-47
2023/01/07 07:26:26;;;;;;;;;;;;;;;14.65;33.51;96165.19;5073503;28;1988;-47
2023/01/07 07:28:52;;;;;;;;;;;;;;;15.18;32.53;96165.88;5073512;28;975;-47
2023/01/07 07:31:18;;;;;;;;;;;;;;;15.30;33.38;96164.53;5073480;28;1284;-47
2023/01/07 07:33:44;;;;;;;;;;;;;;;15.30;32.61;96167.22;5073692;28;1004;-47
2023/01/07 07:36:10;;;;;;;;;;;;;;;15.52;32.26;96167.59;5073471;28;1021;-47
2023/01/07 07:38:36;;;;;;;;;;;;;;;15.54;32.64;96155.63;5073364;28;1864;-47
2023/01/07 07:41:02;;;;;;;;;;;;;;;15.99;32.17;96159.72;5070607;28;1464;-47
2023/01/07 07:43:28;;;;;;;;;;;;;;;16.27;32.22;96158.47;5073049;28;1906;-47
2023/01/07 07:45:54;;;;;;;;;;;;;;;16.27;32.78;96164.72;5073346;28;1016;-47
2023/01/07 07:48:20;;;;;;;;;;;;;;;15.49;33.08;96154.44;5073480;28;954;-47
2023/01/07 07:50:49;;;;;;;;;;;;;;;13.66;36.13;96150.25;5073262;28;1067;-47
2023/01/07 07:53:15;;;;;;;;;;;;;;;12.01;39.09;96126.13;5072908;28;1017;-47
2023/01/07 07:55:41;;;;;;;;;;;;;;;9.99;43.13;96122.09;5073205;28;1004;-47
2023/01/07 07:58:07;;;;;;;;;;;;;;;7.48;50.18;96100.00;5073167;28;1020;-46
2023/01/07 08:00:33;;;;;;;;;;;;;;;5.36;58.10;96076.47;5073333;28;1035;-46
2023/01/07 08:02:59;;;;;;;;;;;;;;;4.08;63.71;96063.81;5073046;28;1993;-47
2023/01/07 08:05:26;;;;;;;;;;;;;;;3.43;67.73;96061.75;5073031;28;1253;-48
2023/01/07 08:07:52;;;;;;;;;;;;;;;3.09;69.73;96084.09;5073177;28;1858;-48
2023/01/07 08:10:19;;;;;;;;;;;;;;;2.92;70.43;96082.47;5073189;28;979;-48
2023/01/07 08:12:45;;;;;;;;;;;;;;;2.68;71.63;96090.91;5072700;28;1064;-48
2023/01/07 08:15:12;;;;;;;;;;;;;;;2.46;72.52;96083.38;5073274;28;988;-48
2023/01/07 08:17:38;;;;;;;;;;;;;;;2.63;73.23;96085.03;5072981;28;1073;-48
2023/01/07 08:20:05;;;;;;;;;;;;;;;2.83;71.08;96083.03;5073117;28;1218;-49
2023/01/07 08:22:32;;;;;;;;;;;;;;;3.05;71.92;96080.78;5072691;28;1982;-48
2023/01/07 08:24:58;;;;;;;;;;;;;;;2.99;72.75;96075.88;5072898;28;1519;-48
2023/01/07 08:27:26;;;;;;;;;;;;;;;3.00;72.87;96076.72;5055302;28;1041;-48
2023/01/07 08:29:53;;;;;;;;;;;;;;;3.01;73.01;96087.22;5073201;28;1092;-48
2023/01/07 08:32:19;;;;;;;;;;;;;;;3.08;72.67;96083.25;5072774;28;1081;-49
2023/01/07 08:34:45;;;;;;;;;;;;;;;3.26;73.36;96076.03;5072997;28;1030;-49
2023/01/07 08:37:12;;;;;;;;;;;;;;;3.45;72.17;96077.50;5055137;28;1033;-49
2023/01/07 08:39:38;;;;;;;;;;;;;;;3.52;71.93;96082.34;5072854;28;1011;-49
2023/01/07 08:42:04;;;;;;;;;;;;;;;3.52;72.39;96078.84;5072498;28;1910;-49
2023/01/07 08:44:31;;;;;;;;;;;;;;;3.59;72.54;96069.59;5072847;28;988;-49
2023/01/07 08:46:57;;;;;;;;;;;;;;;3.61;72.91;96072.97;5072853;28;1028;-48
2023/01/07 08:49:23;;;;;;;;;;;;;;;3.82;72.05;96077.88;5072755;28;978;-49
2023/01/07 08:51:49;;;;;;;;;;;;;;;3.84;70.91;96081.28;5072518;28;1099;-49
2023/01/07 08:54:15;;;;;;;;;;;;;;;4.06;70.48;96073.66;5072785;28;992;-49
2023/01/07 08:56:41;;;;;;;;;;;;;;;4.47;69.60;96075.41;5071411;28;954;-49
2023/01/07 08:59:07;;;;;;;;;;;;;;;4.44;68.83;96070.31;5072661;28;891;-48
2023/01/07 09:01:34;;;;;;;;;;;;;;;4.78;67.70;96075.16;5072192;28;1953;-49
2023/01/07 09:04:00;;;;;;;;;;;;;;;4.78;67.35;96070.72;5073108;28;1030;-49
2023/01/07 09:06:26;;;;;;;;;;;;;;;4.91;66.61;96062.78;5076062;28;1015;-48
2023/01/07 09:08:52;;;;;;;;;;;;;;;5.01;66.99;96060.38;5075976;28;1020;-49
2023/01/07 09:11:18;;;;;;;;;;;;;;;5.40;64.87;96063.88;5075992;28;1000;-49
2023/01/07 09:13:44;;;;;;;;;;;;;;;5.68;64.08;96057.47;5075646;28;1072;-49
2023/01/07 09:16:10;;;;;;;;;;;;;;;5.74;63.05;96057.03;5076157;28;1040;-48
2023/01/07 09:18:36;;;;;;;;;;;;;;;5.73;63.65;96047.38;5075820;28;1077;-48
2023/01/07 09:21:02;;;;;;;;;;;;;;;6.01;62.73;96051.59;5075910;28;802;-48
2023/01/07 09:23:29;;;;;;;;;;;;;;;6.17;62.62;96048.66;5057616;28;1984;-49
2023/01/07 09:25:55;;;;;;;;;;;;;;;6.62;61.15;96045.34;5075774;28;1032;-49
2023/01/07 09:28:21;;;;;;;;;;;;;;;6.99;59.89;96039.91;5075948;28;1039;-49
2023/01/07 09:30:47;;;;;;;;;;;;;;;6.92;59.61;96041.34;5075957;28;1008;-49
2023/01/07 09:33:13;;;;;;;;;;;;;;;7.18;59.44;96040.19;5075603;28;1118;-48
2023/01/07 09:35:39;;;;;;;;;;;;;;;7.33;58.97;96029.34;5075742;28;959;-49
2023/01/07 09:38:05;;;;;;;;;;;;;;;7.45;58.06;96023.03;5075733;28;1052;-49
2023/01/07 09:40:34;;;;;;;;;;;;;;;7.67;57.31;96026.69;5075396;28;1032;-49
2023/01/07 09:43:07;;;;;;;;;;;;;;;7.88;57.04;96016.97;5075458;28;1914;-49
2023/01/07 09:45:36;;;;;;;;;;;;;;;8.07;56.74;96015.50;5075586;28;997;-48
2023/01/07 09:48:08;;;;;;;;;;;;;;;8.30;55.69;96013.63;5075424;28;1083;-49
2023/01/07 09:50:37;;;;;;;;;;;;;;;8.42;55.04;96001.13;5075451;28;1001;-48
2023/01/07 09:53:06;;;;;;;;;;;;;;;8.66;54.79;96001.75;5075044;28;1119;-49
2023/01/07 09:55:34;;;;;;;;;;;;;;;8.69;54.72;95990.84;5075507;28;1048;-48
2023/01/07 09:58:00;;;;;;;;;;;;;;;8.75;54.03;95984.97;5057727;28;1048;-49
2023/01/07 10:00:27;;;;;;;;;;;;;;;8.60;54.64;95981.78;5074207;28;1053;-48
2023/01/07 10:02:59;;;;;;;;;;;;;;;8.84;54.62;95970.03;5074857;28;1910;-48
2023/01/07 10:05:30;;;;;;;;;;;;;;;9.14;53.98;95968.38;5074796;28;1039;-48
2023/01/07 10:07:59;;;;;;;;;;;;;;;9.49;53.01;95961.81;5075144;28;976;-48
2023/01/07 10:10:28;;;;;;;;;;;;;;;9.85;52.93;95962.22;5075158;28;1036;-49
2023/01/07 10:13:11;;;;;;;;;;;;;;;9.85;51.78;95947.03;5074660;28;1309;-48
2023/01/07 10:15:37;;;;;;;;;;;;;;;10.02;51.92;95952.69;5074812;28;778;-48
2023/01/07 10:18:14;;;;;;;;;;;;;;;10.18;51.59;95946.78;5074651;28;1090;-48
2023/01/07 10:21:00;;;;;;;;;;;;;;;10.55;50.96;95946.97;5074734;28;1020;-49
2023/01/07 10:23:34;;;;;;;;;;;;;;;10.74;49.86;95938.94;5060562;28;1910;-48
2023/01/07 10:26:01;;;;;;;;;;;;;;;10.94;49.93;95936.22;5074636;28;1076;-48
2023/01/07 10:28:33;;;;;;;;;;;;;;;11.01;49.84;95937.34;5074490;28;1571;-49
2023/01/07 10:30:59;;;;;;;;;;;;;;;10.97;48.82;95943.97;5074574;28;964;-48
2023/01/07 10:33:31;;;;;;;;;;;;;;;10.55;49.58;95929.09;5074390;28;1221;-49
2023/01/07 10:36:00;;;;;;;;;;;;;;;10.78;49.47;95930.63;5074608;28;978;-48
2023/01/07 10:38:29;;;;;;;;;;;;;;;11.08;49.49;95924.22;5074469;28;1025;-49
2023/01/07 10:40:59;;;;;;;;;;;;;;;11.16;49.18;95918.97;5074406;28;994;-49
2023/01/07 10:43:34;;;;;;;;;;;;;;;11.38;49.07;95924.94;5073984;28;1913;-49
2023/01/07 10:46:00;;;;;;;;;;;;;;;11.38;48.20;95915.06;5074401;28;1087;-49
2023/01/07 10:48:35;;;;;;;;;;;;;;;11.41;47.96;95908.59;5074338;28;981;-49
2023/01/07 10:51:16;;;;;;;;;;;;;;;11.19;47.64;95901.78;5074280;28;1036;-49
2023/01/07 10:53:54;;;;;;;;;;;;;;;10.91;48.22;95891.88;5073773;28;1040;-49
2023/01/07 10:56:22;;;;;;;;;;;;;;;11.39;48.15;95886.50;5073991;28;1076;-48
2023/01/07 10:58:49;;;;;;;;;;;;;;;11.27;47.65;95884.00;5074298;28;972;-49
2023/01/07 11:01:18;;;;;;;;;;;;;;;11.43;47.55;95878.00;5073986;28;1195;-48
2023/01/07 11:03:47;;;;;;;;;;;;;;;11.75;46.55;95878.53;5073786;28;1175;-49
2023/01/07 11:06:14;;;;;;;;;;;;;;;11.67;47.24;95869.41;5073812;28;1192;-49
2023/01/07 11:08:41;;;;;;;;;;;;;;;11.89;46.16;95873.56;5074022;28;1320;-49
2023/01/07 11:11:15;;;;;;;;;;;;;;;11.94;46.44;95877.59;5073781;28;1021;-49
2023/01/07 11:13:42;;;;;;;;;;;;;;;11.77;46.71;95861.31;5073619;28;1101;-49
2023/01/07 11:16:10;;;;;;;;;;;;;;;12.04;46.47;95852.41;5073606;28;1029;-49
2023/01/07 11:18:49;;;;;;;;;;;;;;;12.25;45.93;95854.75;5073581;28;1224;-49
2023/01/07 11:21:34;;;;;;;;;;;;;;;11.56;45.94;95842.00;5073665;28;1063;-49
2023/01/07 11:24:00;;;;;;;;;;;;;;;11.61;46.65;95850.41;5073452;28;1164;-49
2023/01/07 11:26:33;;;;;;;;;;;;;;;11.50;46.96;95844.28;5073460;28;1036;-48
2023/01/07 11:29:18;;;;;;;;;;;;;;;11.94;46.59;95832.06;5073463;28;1044;-49
2023/01/07 11:31:47;;;;;;;;;;;;;;;12.18;45.96;95831.41;5056103;28;1024;-49
2023/01/07 11:34:19;;;;;;;;;;;;;;;12.27;45.79;95826.00;5073268;28;1028;-49
2023/01/07 11:36:45;;;;;;;;;;;;;;;12.16;46.15;95828.03;5073421;28;1045;-49
2023/01/07 11:39:17;;;;;;;;;;;;;;;12.03;46.32;95821.25;5073539;28;980;-49
2023/01/07 11:45:15;;;;;;;;;;;;;;;12.19;46.48;95817.84;5073574;28;1000;-49
2023/01/07 11:47:47;;;;;;;;;;;;;;;12.15;45.90;95813.81;5073356;28;1162;-49
2023/01/07 11:50:23;;;;;;;;;;;;;;;12.08;46.48;95810.91;5073288;28;1013;-48
2023/01/07 11:53:00;;;;;;;;;;;;;;;11.95;46.86;95804.25;5073330;28;1093;-48
2023/01/07 11:55:27;;;;;;;;;;;;;;;11.64;47.21;95792.03;5073443;28;970;-49
2023/01/07 11:57:54;;;;;;;;;;;;;;;11.79;47.23;95787.00;5073375;28;1025;-49
2023/01/07 12:00:20;;;;;;;;;;;;;;;11.96;46.52;95800.56;5073272;28;1115;-49
2023/01/07 12:02:58;;;;;;;;;;;;;;;12.01;47.25;95796.44;5072723;28;1996;-48
2023/01/07 12:05:27;;;;;;;;;;;;;;;11.97;47.69;95779.00;5073394;28;958;-48
2023/01/07 12:07:55;;;;;;;;;;;;;;;12.14;47.13;95782.66;5073107;28;995;-49
2023/01/07 12:10:35;;;;;;;;;;;;;;;12.05;47.40;95779.06;5073186;28;974;-48
2023/01/07 12:13:03;;;;;;;;;;;;;;;12.01;47.55;95782.19;5072795;28;1023;-48
2023/01/07 12:15:32;;;;;;;;;;;;;;;11.84;47.61;95782.03;5073264;28;1051;-49
2023/01/07 12:18:01;;;;;;;;;;;;;;;11.96;47.87;95773.78;5072076;28;1176;-48
2023/01/07 12:20:39;;;;;;;;;;;;;;;11.88;48.08;95770.00;5072813;28;1215;-49
2023/01/07 12:23:31;;;;;;;;;;;;;;;11.77;48.45;95775.59;5072825;28;1953;-49
2023/01/07 12:25:57;;;;;;;;;;;;;;;11.63;49.10;95760.03;5053262;28;986;-49
2023/01/07 12:28:31;;;;;;;;;;;;;;;11.66;48.78;95765.94;5054475;28;1146;-49
2023/01/07 12:31:16;;;;;;;;;;;;;;;11.66;48.71;95762.41;5073147;28;1032;-48
2023/01/07 12:33:55;;;;;;;;;;;;;;;11.60;48.93;95761.19;5072982;28;1041;-49
2023/01/07 12:36:41;;;;;;;;;;;;;;;11.57;48.54;95760.66;5073115;28;962;-49
2023/01/07 12:39:10;;;;;;;;;;;;;;;11.62;48.79;95748.47;5059473;28;1435;-49
2023/01/07 12:41:40;;;;;;;;;;;;;;;11.23;49.64;95742.56;5076717;28;1914;-49
2023/01/07 12:44:06;;;;;;;;;;;;;;;11.17;49.68;95748.53;5076193;28;1056;-49
2023/01/07 12:46:38;;;;;;;;;;;;;;;11.11;50.58;95742.75;5076478;28;981;-49
2023/01/07 12:49:36;;;;;;;;;;;;;;;11.28;50.00;95737.59;5076234;28;1201;-49
2023/01/07 12:52:05;;;;;;;;;;;;;;;11.43;49.54;95736.09;5032276;28;1502;-49
2023/01/07 12:54:37;;;;;;;;;;;;;;;11.40;49.61;95735.53;5076341;28;1028;-49
2023/01/07 12:57:09;;;;;;;;;;;;;;;11.43;49.86;95729.88;5076359;28;1033;-49
2023/01/07 12:59:38;;;;;;;;;;;;;;;11.17;49.92;95729.78;5076359;28;1108;-48
2023/01/07 13:02:10;;;;;;;;;;;;;;;11.19;49.85;95735.81;5076257;28;1961;-49
2023/01/07 13:04:39;;;;;;;;;;;;;;;11.19;50.18;95733.97;5058564;28;1029;-49
2023/01/07 13:07:28;;;;;;;;;;;;;;;11.12;50.42;95728.41;5076326;28;1085;-49
2023/01/07 13:10:01;;;;;;;;;;;;;;;10.89;50.19;95735.16;5065806;28;1324;-49
2023/01/07 13:12:44;;;;;;;;;;;;;;;10.81;50.42;95730.53;5076291;28;949;-49
2023/01/07 13:15:10;;;;;;;;;;;;;;;10.86;50.39;95727.44;5076143;28;1072;-49
2023/01/07 13:17:36;;;;;;;;;;;;;;;10.91;50.85;95726.00;5075818;28;1101;-49
2023/01/07 13:20:06;;;;;;;;;;;;;;;10.92;51.04;95727.66;5075739;28;1332;-49
2023/01/07 13:22:38;;;;;;;;;;;;;;;10.95;51.58;95721.19;5075744;28;1914;-49